createdAt,value
2017-02-27T00:00:02.489Z,11.48
2017-02-27T00:01:02.489Z,11.57
2017-02-27T00:02:02.856Z,11.66
2017-02-27T00:03:02.879Z,11.73
2017-02-27T00:04:02.901Z,11.61
2017-02-27T00:05:01.994Z,11.57
2017-02-27T00:06:02.767Z,11.58
2017-02-27T00:07:02.352Z,11.6
2017-02-27T00:08:02.322Z,11.64
2017-02-27T00:09:02.731Z,11.57
2017-02-27T00:10:02.709Z,11.56
2017-02-27T00:11:02.654Z,11.57
2017-02-27T00:12:01.854Z,11.75
2017-02-27T00:13:02.214Z,11.66
2017-02-27T00:14:02.203Z,11.76
2017-02-27T00:15:02.564Z,11.72
2017-02-27T00:16:02.195Z,11.56
2017-02-27T00:17:02.523Z,11.64
2017-02-27T00:18:02.111Z,11.57
2017-02-27T00:19:02.494Z,11.46
2017-02-27T00:20:02.530Z,11.53
2017-02-27T00:21:02.062Z,11.6
2017-02-27T00:22:02.038Z,11.64
2017-02-27T00:23:02.417Z,11.57
2017-02-27T00:24:01.989Z,11.54
2017-02-27T00:25:01.576Z,11.56
2017-02-27T00:26:02.409Z,11.56
2017-02-27T00:27:02.320Z,11.57
2017-02-27T00:28:01.916Z,11.6
2017-02-27T00:29:02.359Z,11.6
2017-02-27T00:30:01.864Z,11.6
2017-02-27T00:31:01.858Z,11.6
2017-02-27T00:32:01.836Z,11.54
2017-02-27T00:33:02.201Z,11.64
2017-02-27T00:34:02.183Z,11.65
2017-02-27T00:35:01.780Z,11.64
2017-02-27T00:36:02.145Z,11.58
2017-02-27T00:37:01.739Z,11.56
2017-02-27T00:38:02.100Z,11.6
2017-02-27T00:39:01.320Z,11.6
2017-02-27T00:40:01.270Z,11.56
2017-02-27T00:41:01.661Z,11.56
2017-02-27T00:42:02.047Z,11.69
2017-02-27T00:43:02.001Z,11.69
2017-02-27T00:44:01.608Z,11.64
2017-02-27T00:45:01.949Z,11.61
2017-02-27T00:46:01.545Z,11.56
2017-02-27T00:47:01.193Z,11.71
2017-02-27T00:48:01.118Z,11.65
2017-02-27T00:49:01.876Z,11.69
2017-02-27T00:50:01.870Z,11.66
2017-02-27T00:51:01.895Z,11.66
2017-02-27T00:52:01.423Z,11.79
2017-02-27T00:53:01.797Z,11.71
2017-02-27T00:54:01.011Z,11.64
2017-02-27T00:55:01.783Z,11.58
2017-02-27T00:56:01.727Z,11.58
2017-02-27T00:57:01.389Z,11.6
2017-02-27T00:58:01.710Z,11.64
2017-02-27T00:59:00.930Z,11.64
2017-02-27T01:00:01.661Z,11.69
2017-02-27T01:01:01.706Z,11.73
2017-02-27T01:02:01.632Z,11.72
2017-02-27T01:03:01.708Z,11.61
2017-02-27T01:04:01.566Z,11.57
2017-02-27T01:05:01.547Z,11.69
2017-02-27T01:06:01.538Z,11.76
2017-02-27T01:07:01.628Z,11.65
2017-02-27T01:08:00.721Z,11.66
2017-02-27T01:09:01.613Z,11.73
2017-02-27T01:10:01.462Z,11.72
2017-02-27T01:11:01.046Z,11.66
2017-02-27T01:12:01.034Z,11.66
2017-02-27T01:13:01.024Z,11.61
2017-02-27T01:14:01.392Z,11.58
2017-02-27T01:15:01.352Z,11.66
2017-02-27T01:16:00.569Z,11.79
2017-02-27T01:17:01.329Z,11.75
2017-02-27T01:18:00.950Z,11.72
2017-02-27T01:19:00.890Z,11.69
2017-02-27T01:20:00.924Z,11.75
2017-02-27T01:21:01.367Z,11.69
2017-02-27T01:22:01.218Z,11.71
2017-02-27T01:23:00.902Z,11.69
2017-02-27T01:24:01.165Z,11.76
2017-02-27T01:25:00.425Z,11.65
2017-02-27T01:26:01.184Z,11.71
2017-02-27T01:27:00.711Z,11.73
2017-02-27T01:28:01.127Z,11.73
2017-02-27T01:29:01.073Z,11.79
2017-02-27T01:30:00.263Z,11.68
2017-02-27T01:31:01.021Z,11.66
2017-02-27T01:32:00.651Z,11.71
2017-02-27T01:33:00.226Z,11.75
2017-02-27T01:34:00.971Z,11.72
2017-02-27T01:52:46.340Z,11.68
2017-02-27T01:53:41.679Z,11.69
2017-02-27T01:54:41.660Z,11.6
2017-02-27T01:55:41.658Z,11.68
2017-02-27T01:56:42.111Z,11.69
2017-02-27T01:57:41.996Z,11.69
2017-02-27T01:58:41.608Z,11.71
2017-02-27T01:59:41.563Z,11.73
2017-02-27T02:00:41.534Z,11.69
2017-02-27T02:01:41.919Z,11.79
2017-02-27T02:02:41.122Z,11.78
2017-02-27T02:03:41.875Z,11.83
2017-02-27T02:04:41.864Z,11.83
2017-02-27T02:05:41.453Z,11.84
2017-02-27T02:06:41.424Z,11.69
2017-02-27T02:07:41.393Z,11.71
2017-02-27T02:08:41.395Z,11.79
2017-02-27T02:09:41.741Z,11.75
2017-02-27T02:10:41.352Z,11.72
2017-02-27T02:11:41.332Z,11.72
2017-02-27T02:12:41.420Z,11.81
2017-02-27T02:13:41.276Z,11.76
2017-02-27T02:14:41.271Z,11.81
2017-02-27T02:15:41.634Z,11.86
2017-02-27T02:16:41.622Z,11.83
2017-02-27T02:17:40.810Z,11.81
2017-02-27T02:18:41.587Z,11.81
2017-02-27T02:19:41.168Z,11.83
2017-02-27T02:20:41.156Z,11.78
2017-02-27T02:21:41.516Z,11.84
2017-02-27T02:22:41.105Z,11.79
2017-02-27T02:23:41.459Z,11.81
2017-02-27T02:24:41.194Z,11.79
2017-02-27T02:25:41.434Z,11.83
2017-02-27T02:26:41.415Z,11.86
2017-02-27T02:27:41.013Z,11.78
2017-02-27T02:28:41.003Z,11.86
2017-02-27T02:29:40.973Z,11.86
2017-02-27T02:30:40.953Z,11.86
2017-02-27T02:31:40.969Z,11.81
2017-02-27T02:32:40.923Z,11.78
2017-02-27T02:33:41.352Z,11.84
2017-02-27T02:34:41.243Z,11.81
2017-02-27T02:35:41.291Z,11.71
2017-02-27T02:36:40.839Z,11.84
2017-02-27T02:37:41.258Z,11.71
2017-02-27T02:38:40.408Z,11.73
2017-02-27T02:39:40.846Z,11.76
2017-02-27T02:40:40.757Z,11.65
2017-02-27T02:41:40.826Z,11.73
2017-02-27T02:42:41.096Z,11.76
2017-02-27T02:43:41.145Z,11.79
2017-02-27T02:44:41.055Z,11.73
2017-02-27T02:45:40.643Z,11.76
2017-02-27T02:46:40.625Z,11.73
2017-02-27T02:47:41.033Z,11.76
2017-02-27T02:48:40.963Z,11.81
2017-02-27T02:49:41.056Z,11.78
2017-02-27T02:50:40.201Z,11.81
2017-02-27T02:51:40.512Z,11.71
2017-02-27T02:52:40.897Z,11.75
2017-02-27T02:53:40.890Z,11.73
2017-02-27T02:54:40.839Z,11.68
2017-02-27T02:55:40.841Z,11.68
2017-02-27T02:56:40.428Z,11.68
2017-02-27T02:57:40.414Z,11.75
2017-02-27T02:58:40.796Z,11.78
2017-02-27T02:59:40.757Z,11.69
2017-02-27T03:00:40.348Z,11.76
2017-02-27T03:01:40.708Z,11.71
2017-02-27T03:02:40.694Z,11.76
2017-02-27T03:03:40.276Z,11.6
2017-02-27T03:04:40.271Z,11.6
2017-02-27T03:05:40.692Z,11.61
2017-02-27T03:06:40.667Z,11.6
2017-02-27T03:07:40.721Z,11.69
2017-02-27T03:08:40.181Z,11.72
2017-02-27T03:09:40.161Z,11.71
2017-02-27T03:10:40.550Z,11.76
2017-02-27T03:11:40.581Z,11.71
2017-02-27T03:12:40.100Z,11.71
2017-02-27T03:13:40.468Z,11.75
2017-02-27T03:14:40.061Z,11.75
2017-02-27T03:15:40.443Z,11.72
2017-02-27T03:16:39.633Z,11.76
2017-02-27T03:17:39.619Z,11.76
2017-02-27T03:18:39.975Z,11.73
2017-02-27T03:19:40.355Z,11.64
2017-02-27T03:20:39.935Z,11.64
2017-02-27T03:21:39.927Z,11.64
2017-02-27T03:22:39.900Z,11.61
2017-02-27T03:23:40.264Z,11.64
2017-02-27T03:24:40.343Z,11.66
2017-02-27T03:25:40.212Z,11.57
2017-02-27T03:26:39.817Z,11.64
2017-02-27T03:27:39.780Z,11.69
2017-02-27T03:28:40.215Z,11.72
2017-02-27T03:29:40.142Z,11.69
2017-02-27T03:30:40.229Z,11.68
2017-02-27T03:31:40.099Z,11.72
2017-02-27T03:32:39.688Z,11.71
2017-02-27T03:33:39.680Z,11.81
2017-02-27T03:34:40.094Z,11.75
2017-02-27T03:35:40.026Z,11.71
2017-02-27T03:36:39.617Z,11.84
2017-02-27T03:37:39.597Z,11.76
2017-02-27T03:38:39.191Z,11.76
2017-02-27T03:39:39.568Z,11.66
2017-02-27T03:40:39.948Z,11.71
2017-02-27T03:41:39.514Z,11.64
2017-02-27T03:42:39.501Z,11.6
2017-02-27T03:43:39.481Z,11.57
2017-02-27T03:44:39.462Z,11.71
2017-02-27T03:45:39.037Z,11.69
2017-02-27T03:46:39.411Z,11.72
2017-02-27T03:47:39.780Z,11.69
2017-02-27T03:48:39.770Z,11.69
2017-02-27T03:49:39.359Z,11.75
2017-02-27T03:50:39.339Z,11.69
2017-02-27T03:51:39.321Z,11.64
2017-02-27T03:52:39.680Z,11.6
2017-02-27T03:53:39.267Z,11.69
2017-02-27T03:54:39.248Z,11.71
2017-02-27T03:55:39.236Z,11.71
2017-02-27T03:56:39.274Z,11.75
2017-02-27T03:57:39.578Z,11.72
2017-02-27T03:58:39.569Z,11.79
2017-02-27T03:59:38.791Z,11.72
2017-02-27T04:00:38.756Z,11.84
2017-02-27T04:01:39.503Z,11.72
2017-02-27T04:02:39.129Z,11.79
2017-02-27T04:03:39.085Z,11.71
2017-02-27T04:04:39.443Z,11.73
2017-02-27T04:05:39.033Z,11.78
2017-02-27T04:06:39.391Z,11.81
2017-02-27T04:07:39.369Z,11.83
2017-02-27T04:08:38.668Z,11.84
2017-02-27T04:09:39.357Z,11.72
2017-02-27T04:10:38.939Z,11.72
2017-02-27T04:11:38.917Z,11.76
2017-02-27T04:12:39.277Z,11.73
2017-02-27T04:13:39.346Z,11.83
2017-02-27T04:14:39.237Z,11.81
2017-02-27T04:15:39.328Z,11.84
2017-02-27T04:16:39.195Z,11.79
2017-02-27T04:17:38.412Z,11.89
2017-02-27T04:18:39.154Z,11.76
2017-02-27T04:19:39.131Z,11.87
2017-02-27T04:20:38.743Z,11.81
2017-02-27T04:21:39.112Z,11.83
2017-02-27T04:22:38.821Z,11.75
2017-02-27T04:23:38.681Z,11.71
2017-02-27T04:24:38.648Z,11.79
2017-02-27T04:25:39.010Z,11.76
2017-02-27T04:26:38.616Z,11.87
2017-02-27T04:27:39.028Z,11.81
2017-02-27T04:28:38.959Z,11.76
2017-02-27T04:29:38.180Z,11.73
2017-02-27T04:30:38.931Z,11.71
2017-02-27T04:31:38.887Z,11.68
2017-02-27T04:32:38.887Z,11.84
2017-02-27T04:33:38.106Z,11.69
2017-02-27T04:34:38.844Z,11.71
2017-02-27T04:35:38.815Z,11.69
2017-02-27T04:36:38.844Z,11.69
2017-02-27T04:37:38.404Z,11.69
2017-02-27T04:38:38.395Z,11.72
2017-02-27T04:39:37.962Z,11.76
2017-02-27T04:40:38.321Z,11.75
2017-02-27T04:41:37.933Z,11.76
2017-02-27T04:42:38.402Z,11.75
2017-02-27T04:43:38.292Z,11.71
2017-02-27T04:44:38.262Z,11.84
2017-02-27T04:45:38.620Z,11.83
2017-02-27T04:46:38.213Z,11.75
2017-02-27T04:47:38.570Z,11.79
2017-02-27T04:48:37.771Z,11.84
2017-02-27T04:49:38.545Z,11.83
2017-02-27T04:50:38.132Z,11.84
2017-02-27T04:51:38.508Z,11.84
2017-02-27T04:52:38.087Z,11.81
2017-02-27T04:53:38.136Z,11.81
2017-02-27T04:54:38.459Z,11.81
2017-02-27T04:55:38.077Z,11.84
2017-02-27T04:56:38.401Z,11.73
2017-02-27T04:57:38.020Z,11.76
2017-02-27T04:58:37.972Z,11.81
2017-02-27T04:59:37.942Z,11.81
2017-02-27T05:00:37.922Z,11.83
2017-02-27T05:01:37.897Z,11.68
2017-02-27T05:02:37.899Z,11.81
2017-02-27T05:03:38.246Z,11.84
2017-02-27T05:04:37.851Z,11.76
2017-02-27T05:05:37.446Z,11.69
2017-02-27T05:06:37.430Z,11.71
2017-02-27T05:07:38.178Z,11.75
2017-02-27T05:08:37.767Z,11.71
2017-02-27T05:09:37.730Z,11.75
2017-02-27T05:10:37.335Z,11.73
2017-02-27T05:11:37.716Z,11.76
2017-02-27T05:12:37.606Z,11.68
2017-02-27T05:13:38.082Z,11.76
2017-02-27T05:14:37.261Z,11.73
2017-02-27T05:15:38.004Z,11.79
2017-02-27T05:16:38.021Z,11.83
2017-02-27T05:17:37.573Z,11.81
2017-02-27T05:18:37.589Z,11.69
2017-02-27T05:19:37.541Z,11.72
2017-02-27T05:20:37.911Z,11.86
2017-02-27T05:21:37.536Z,11.69
2017-02-27T05:22:37.864Z,11.71
2017-02-27T05:23:37.848Z,11.75
2017-02-27T05:24:37.827Z,11.73
2017-02-27T05:25:37.824Z,11.75
2017-02-27T05:26:37.406Z,11.75
2017-02-27T05:27:37.386Z,11.76
2017-02-27T05:28:37.368Z,11.73
2017-02-27T05:29:37.330Z,11.72
2017-02-27T05:30:37.326Z,11.54
2017-02-27T05:31:37.704Z,11.71
2017-02-27T05:32:37.665Z,11.71
2017-02-27T05:33:37.653Z,11.73
2017-02-27T05:34:36.867Z,11.75
2017-02-27T05:35:36.826Z,11.76
2017-02-27T05:36:37.198Z,11.83
2017-02-27T05:37:37.584Z,11.79
2017-02-27T05:38:37.564Z,11.81
2017-02-27T05:39:37.519Z,11.81
2017-02-27T05:40:37.518Z,11.79
2017-02-27T05:41:37.099Z,11.79
2017-02-27T05:42:36.708Z,11.72
2017-02-27T05:43:37.458Z,11.75
2017-02-27T05:44:37.436Z,11.87
2017-02-27T05:45:37.027Z,11.79
2017-02-27T05:46:36.698Z,11.86
2017-02-27T05:47:37.381Z,11.84
2017-02-27T05:48:37.076Z,11.79
2017-02-27T05:49:37.332Z,11.86
2017-02-27T05:50:37.024Z,11.68
2017-02-27T05:51:37.295Z,11.56
2017-02-27T05:52:37.272Z,11.56
2017-02-27T05:53:36.851Z,11.58
2017-02-27T05:54:37.218Z,11.58
2017-02-27T05:55:36.444Z,11.61
2017-02-27T05:56:37.192Z,11.54
2017-02-27T05:57:36.792Z,11.56
2017-02-27T05:58:36.784Z,11.5
2017-02-27T05:59:37.147Z,11.53
2017-02-27T06:00:37.109Z,11.5
2017-02-27T06:01:36.696Z,11.51
2017-02-27T06:02:37.068Z,11.56
2017-02-27T06:03:36.650Z,11.53
2017-02-27T06:04:37.019Z,11.48
2017-02-27T06:05:37.010Z,11.51
2017-02-27T06:06:36.995Z,11.47
2017-02-27T06:07:36.981Z,11.43
2017-02-27T06:08:36.687Z,11.47
2017-02-27T06:09:36.926Z,11.48
2017-02-27T06:10:36.535Z,11.5
2017-02-27T06:11:36.905Z,11.42
2017-02-27T06:12:36.485Z,11.43
2017-02-27T06:13:36.853Z,11.6
2017-02-27T06:14:36.842Z,11.6
2017-02-27T06:15:36.812Z,11.58
2017-02-27T06:16:36.791Z,11.57
2017-02-27T06:17:36.382Z,11.61
2017-02-27T06:18:36.741Z,11.61
2017-02-27T06:19:36.729Z,11.6
2017-02-27T06:20:36.713Z,11.54
2017-02-27T06:21:35.898Z,11.6
2017-02-27T06:22:36.666Z,11.48
2017-02-27T06:23:36.647Z,11.47
2017-02-27T06:24:36.625Z,11.54
2017-02-27T06:25:35.837Z,11.6
2017-02-27T06:26:36.206Z,11.54
2017-02-27T06:27:35.826Z,11.53
2017-02-27T06:28:36.558Z,11.57
2017-02-27T06:29:36.141Z,11.57
2017-02-27T06:30:36.524Z,11.56
2017-02-27T06:31:35.706Z,11.58
2017-02-27T06:32:36.074Z,11.56
2017-02-27T06:33:36.116Z,11.73
2017-02-27T06:34:36.036Z,11.69
2017-02-27T06:35:36.420Z,11.89
2017-02-27T06:36:36.001Z,11.79
2017-02-27T06:37:36.359Z,11.75
2017-02-27T06:38:36.340Z,11.73
2017-02-27T06:39:35.949Z,11.61
2017-02-27T06:40:36.299Z,11.56
2017-02-27T06:41:35.899Z,11.75
2017-02-27T06:42:36.258Z,11.61
2017-02-27T06:43:36.247Z,11.72
2017-02-27T06:44:36.214Z,11.71
2017-02-27T06:45:36.207Z,11.84
2017-02-27T06:46:36.190Z,11.73
2017-02-27T06:47:36.176Z,11.58
2017-02-27T06:48:35.775Z,11.56
2017-02-27T06:49:36.152Z,11.6
2017-02-27T06:50:36.103Z,11.75
2017-02-27T06:51:36.067Z,11.78
2017-02-27T06:52:36.074Z,11.83
2017-02-27T06:53:36.041Z,11.81
2017-02-27T06:54:35.253Z,11.83
2017-02-27T06:55:36.011Z,11.86
2017-02-27T06:56:35.592Z,11.81
2017-02-27T06:57:35.971Z,11.81
2017-02-27T06:58:35.941Z,11.84
2017-02-27T06:59:35.919Z,11.84
2017-02-27T07:00:35.909Z,11.87
2017-02-27T07:01:35.885Z,11.79
2017-02-27T07:02:35.488Z,11.69
2017-02-27T07:03:35.848Z,11.79
2017-02-27T07:04:35.837Z,11.84
2017-02-27T07:05:35.805Z,11.81
2017-02-27T07:06:35.783Z,11.71
2017-02-27T07:07:35.755Z,11.87
2017-02-27T07:08:35.735Z,11.71
2017-02-27T07:09:35.774Z,11.79
2017-02-27T07:10:35.717Z,11.75
2017-02-27T07:11:35.294Z,11.72
2017-02-27T07:12:35.673Z,11.81
2017-02-27T07:13:35.270Z,11.69
2017-02-27T07:14:35.249Z,11.75
2017-02-27T07:15:35.211Z,11.75
2017-02-27T07:16:35.202Z,11.73
2017-02-27T07:17:35.181Z,11.79
2017-02-27T07:18:35.146Z,11.94
2017-02-27T07:19:35.520Z,11.79
2017-02-27T07:20:35.115Z,11.78
2017-02-27T07:21:35.091Z,11.84
2017-02-27T07:22:35.461Z,11.69
2017-02-27T07:23:35.046Z,11.81
2017-02-27T07:24:35.427Z,11.83
2017-02-27T07:25:35.027Z,11.72
2017-02-27T07:26:34.986Z,11.76
2017-02-27T07:27:34.976Z,11.69
2017-02-27T07:28:35.004Z,11.75
2017-02-27T07:29:34.946Z,11.83
2017-02-27T07:30:35.312Z,11.81
2017-02-27T07:31:35.283Z,11.84
2017-02-27T07:32:34.892Z,11.84
2017-02-27T07:33:34.849Z,11.86
2017-02-27T07:34:34.841Z,11.84
2017-02-27T07:35:35.205Z,11.84
2017-02-27T07:36:35.190Z,11.98
2017-02-27T07:37:34.767Z,11.81
2017-02-27T07:38:35.151Z,11.91
2017-02-27T07:39:35.139Z,11.87
2017-02-27T07:40:35.107Z,11.81
2017-02-27T07:41:35.089Z,11.69
2017-02-27T07:42:34.695Z,11.78
2017-02-27T07:43:34.655Z,11.84
2017-02-27T07:44:34.656Z,11.79
2017-02-27T07:45:35.036Z,11.71
2017-02-27T07:46:34.987Z,11.72
2017-02-27T07:47:34.586Z,11.83
2017-02-27T07:48:34.245Z,12.02
2017-02-27T07:49:34.543Z,11.98
2017-02-27T07:50:34.923Z,11.91
2017-02-27T07:51:34.502Z,11.91
2017-02-27T07:52:34.852Z,11.9
2017-02-27T07:53:34.463Z,11.79
2017-02-27T07:54:34.834Z,11.81
2017-02-27T07:55:34.421Z,11.84
2017-02-27T07:56:34.796Z,11.94
2017-02-27T07:57:34.760Z,11.99
2017-02-27T07:58:34.770Z,12.06
2017-02-27T07:59:34.711Z,11.94
2017-02-27T08:00:34.706Z,12.07
2017-02-27T08:01:34.298Z,12.28
2017-02-27T08:02:34.289Z,12.23
2017-02-27T08:03:33.866Z,12.23
2017-02-27T08:04:34.248Z,12.35
2017-02-27T08:05:34.213Z,12.42
2017-02-27T08:06:34.201Z,12.37
2017-02-27T08:07:34.575Z,12.34
2017-02-27T08:08:34.547Z,12.37
2017-02-27T08:09:34.131Z,12.71
2017-02-27T08:10:34.124Z,12.76
2017-02-27T08:11:34.471Z,12.48
2017-02-27T08:12:34.479Z,12.45
2017-02-27T08:13:34.052Z,12.28
2017-02-27T08:14:34.445Z,12.21
2017-02-27T08:15:34.412Z,12.43
2017-02-27T08:16:34.391Z,12.49
2017-02-27T08:17:34.396Z,12.61
2017-02-27T08:18:33.583Z,12.68
2017-02-27T08:19:34.338Z,12.5
2017-02-27T08:20:34.298Z,12.52
2017-02-27T08:21:34.318Z,12.61
2017-02-27T08:22:33.876Z,12.58
2017-02-27T08:23:34.247Z,12.49
2017-02-27T08:24:33.842Z,12.48
2017-02-27T08:25:34.209Z,12.57
2017-02-27T08:26:34.206Z,12.65
2017-02-27T08:27:33.806Z,12.76
2017-02-27T08:28:34.175Z,12.76
2017-02-27T08:29:34.146Z,12.58
2017-02-27T08:30:34.113Z,12.53
2017-02-27T08:31:34.122Z,12.52
2017-02-27T08:32:34.088Z,12.58
2017-02-27T08:33:34.070Z,12.48
2017-02-27T08:34:34.063Z,12.55
2017-02-27T08:35:34.038Z,12.55
2017-02-27T08:36:33.621Z,12.6
2017-02-27T08:37:34.008Z,12.58
2017-02-27T08:38:33.974Z,12.74
2017-02-27T08:39:33.955Z,12.68
2017-02-27T08:40:33.938Z,12.68
2017-02-27T08:41:33.916Z,12.61
2017-02-27T08:42:33.537Z,12.71
2017-02-27T08:43:33.893Z,12.74
2017-02-27T08:44:33.847Z,12.68
2017-02-27T08:45:33.834Z,12.71
2017-02-27T08:46:33.844Z,12.71
2017-02-27T08:47:33.440Z,12.78
2017-02-27T08:48:33.403Z,12.9
2017-02-27T08:49:33.813Z,12.73
2017-02-27T08:50:33.741Z,12.83
2017-02-27T08:51:33.333Z,12.83
2017-02-27T08:52:33.312Z,12.83
2017-02-27T08:53:32.909Z,12.78
2017-02-27T08:54:33.665Z,12.7
2017-02-27T08:55:33.267Z,12.71
2017-02-27T08:56:33.649Z,12.73
2017-02-27T08:57:33.220Z,12.61
2017-02-27T08:58:33.618Z,12.78
2017-02-27T08:59:33.214Z,12.83
2017-02-27T09:00:33.171Z,13
2017-02-27T09:01:33.541Z,12.98
2017-02-27T09:02:33.127Z,12.89
2017-02-27T09:03:33.546Z,12.79
2017-02-27T09:04:33.123Z,12.68
2017-02-27T09:05:33.086Z,12.85
2017-02-27T09:06:33.434Z,12.98
2017-02-27T09:07:33.429Z,12.82
2017-02-27T09:08:33.007Z,12.96
2017-02-27T09:09:33.384Z,13.21
2017-02-27T09:10:32.993Z,13.26
2017-02-27T09:11:33.356Z,13.15
2017-02-27T09:12:32.925Z,13.14
2017-02-27T09:13:33.341Z,13.07
2017-02-27T09:14:32.896Z,13.26
2017-02-27T09:15:32.873Z,13.47
2017-02-27T09:16:32.860Z,13.62
2017-02-27T09:17:32.850Z,13.48
2017-02-27T09:18:32.827Z,13.48
2017-02-27T09:19:33.187Z,13.49
2017-02-27T09:20:32.797Z,13.31
2017-02-27T09:21:32.779Z,13.23
2017-02-27T09:22:33.161Z,13.15
2017-02-27T09:23:33.116Z,13.21
2017-02-27T09:24:33.105Z,13.22
2017-02-27T09:25:33.093Z,13.35
2017-02-27T09:26:32.683Z,13.52
2017-02-27T09:27:32.654Z,13.48
2017-02-27T09:28:33.043Z,13.41
2017-02-27T09:29:33.018Z,13.22
2017-02-27T09:30:32.596Z,13.23
2017-02-27T09:31:32.975Z,13.47
2017-02-27T09:32:32.581Z,13.49
2017-02-27T09:33:32.554Z,13.56
2017-02-27T09:34:32.526Z,13.49
2017-02-27T09:35:32.525Z,13.59
2017-02-27T09:36:32.879Z,13.45
2017-02-27T09:37:32.857Z,13.63
2017-02-27T09:38:32.868Z,13.49
2017-02-27T09:39:32.045Z,13.7
2017-02-27T09:40:32.824Z,13.62
2017-02-27T09:41:32.400Z,13.56
2017-02-27T09:42:32.398Z,13.41
2017-02-27T09:43:32.376Z,13.31
2017-02-27T09:44:32.728Z,13.21
2017-02-27T09:45:31.962Z,13.22
2017-02-27T09:46:32.324Z,13.18
2017-02-27T09:47:31.915Z,13.22
2017-02-27T09:48:31.892Z,13.22
2017-02-27T09:49:32.263Z,13.19
2017-02-27T09:50:32.228Z,13.37
2017-02-27T09:51:32.621Z,13.47
2017-02-27T09:52:32.286Z,13.44
2017-02-27T09:53:32.181Z,13.48
2017-02-27T09:54:32.532Z,13.4
2017-02-27T09:55:32.154Z,13.48
2017-02-27T09:56:32.272Z,13.45
2017-02-27T09:57:32.553Z,13.57
2017-02-27T09:58:32.134Z,13.42
2017-02-27T09:59:32.083Z,13.38
2017-02-27T10:00:32.065Z,13.52
2017-02-27T10:01:32.526Z,13.56
2017-02-27T10:02:31.618Z,13.31
2017-02-27T10:03:31.995Z,13.41
2017-02-27T10:04:31.973Z,13.38
2017-02-27T10:05:32.002Z,13.38
2017-02-27T10:06:32.375Z,13.33
2017-02-27T10:07:32.510Z,13.4
2017-02-27T10:08:32.095Z,13.31
2017-02-27T10:09:31.876Z,13.35
2017-02-27T10:10:31.869Z,13.38
2017-02-27T10:11:32.249Z,13.47
2017-02-27T10:12:32.217Z,13.29
2017-02-27T10:13:31.891Z,13.35
2017-02-27T10:14:31.784Z,13.45
2017-02-27T10:15:32.216Z,13.56
2017-02-27T10:16:32.138Z,13.71
2017-02-27T10:17:31.743Z,13.88
2017-02-27T10:18:31.711Z,13.84
2017-02-27T10:19:31.713Z,13.78
2017-02-27T10:20:32.065Z,13.52
2017-02-27T10:21:31.273Z,13.44
2017-02-27T10:22:31.639Z,13.42
2017-02-27T10:23:32.045Z,13.49
2017-02-27T10:24:32.012Z,13.33
2017-02-27T10:25:31.583Z,13.29
2017-02-27T10:26:31.578Z,13.31
2017-02-27T10:27:31.559Z,13.42
2017-02-27T10:28:31.523Z,13.48
2017-02-27T10:29:31.531Z,13.31
2017-02-27T10:30:31.498Z,13.48
2017-02-27T10:31:31.874Z,13.47
2017-02-27T10:32:31.484Z,13.49
2017-02-27T10:33:31.876Z,13.57
2017-02-27T10:34:31.440Z,13.74
2017-02-27T10:35:31.409Z,13.77
2017-02-27T10:36:31.382Z,13.8
2017-02-27T10:37:31.755Z,13.8
2017-02-27T10:38:31.718Z,13.77
2017-02-27T10:39:31.729Z,13.78
2017-02-27T10:40:31.706Z,13.89
2017-02-27T10:41:31.676Z,13.85
2017-02-27T10:42:31.262Z,13.82
2017-02-27T10:43:31.294Z,13.67
2017-02-27T10:44:31.623Z,13.75
2017-02-27T10:45:31.203Z,13.85
2017-02-27T10:46:31.625Z,13.78
2017-02-27T10:47:31.583Z,13.84
2017-02-27T10:48:31.568Z,13.82
2017-02-27T10:49:31.149Z,13.85
2017-02-27T10:50:31.121Z,13.84
2017-02-27T10:51:31.112Z,13.82
2017-02-27T10:52:31.102Z,13.95
2017-02-27T10:53:31.088Z,14.11
2017-02-27T10:54:30.768Z,14.3
2017-02-27T10:55:31.018Z,14.18
2017-02-27T10:56:31.421Z,14.15
2017-02-27T10:57:31.015Z,14
2017-02-27T10:58:31.407Z,13.9
2017-02-27T10:59:31.377Z,13.81
2017-02-27T11:00:31.338Z,13.89
2017-02-27T11:01:31.375Z,13.93
2017-02-27T11:02:30.528Z,13.81
2017-02-27T11:03:31.284Z,13.95
2017-02-27T11:04:31.256Z,13.92
2017-02-27T11:05:31.243Z,13.96
2017-02-27T11:06:31.205Z,14.1
2017-02-27T11:07:30.821Z,14.05
2017-02-27T11:08:31.181Z,13.9
2017-02-27T11:09:30.796Z,13.71
2017-02-27T11:10:30.769Z,13.75
2017-02-27T11:11:31.146Z,13.7
2017-02-27T11:12:30.744Z,13.78
2017-02-27T11:13:31.109Z,13.75
2017-02-27T11:14:31.089Z,13.74
2017-02-27T11:15:30.678Z,13.63
2017-02-27T11:16:30.679Z,13.74
2017-02-27T11:17:30.675Z,13.82
2017-02-27T11:18:31.011Z,13.81
2017-02-27T11:19:30.215Z,13.65
2017-02-27T11:20:30.983Z,13.65
2017-02-27T11:21:30.569Z,13.75
2017-02-27T11:22:30.552Z,13.66
2017-02-27T11:23:30.542Z,13.67
2017-02-27T11:24:30.512Z,13.63
2017-02-27T11:25:30.879Z,13.56
2017-02-27T11:26:30.093Z,13.63
2017-02-27T11:27:30.458Z,13.65
2017-02-27T11:28:30.067Z,13.7
2017-02-27T11:29:30.825Z,13.66
2017-02-27T11:30:30.428Z,13.63
2017-02-27T11:31:30.398Z,13.72
2017-02-27T11:32:30.354Z,13.78
2017-02-27T11:33:30.431Z,13.77
2017-02-27T11:34:30.318Z,13.78
2017-02-27T11:35:29.920Z,13.85
2017-02-27T11:36:30.705Z,13.82
2017-02-27T11:37:30.325Z,13.66
2017-02-27T11:38:30.624Z,13.78
2017-02-27T11:39:30.225Z,13.88
2017-02-27T11:40:30.614Z,13.82
2017-02-27T11:41:30.200Z,14
2017-02-27T11:42:30.174Z,14.03
2017-02-27T11:43:30.162Z,14.13
2017-02-27T11:44:30.542Z,13.96
2017-02-27T11:45:30.131Z,14.08
2017-02-27T11:46:30.101Z,13.97
2017-02-27T11:47:30.482Z,13.78
2017-02-27T11:48:30.083Z,13.78
2017-02-27T11:49:30.461Z,13.71
2017-02-27T11:50:29.648Z,13.75
2017-02-27T11:51:30.411Z,13.77
2017-02-27T11:52:30.388Z,13.63
2017-02-27T11:53:29.997Z,13.74
2017-02-27T11:54:29.959Z,13.6
2017-02-27T11:55:29.961Z,13.63
2017-02-27T11:56:29.928Z,13.63
2017-02-27T11:57:29.903Z,13.6
2017-02-27T11:58:30.287Z,13.65
2017-02-27T11:59:30.248Z,13.67
2017-02-27T12:00:29.843Z,13.85
2017-02-27T12:01:30.243Z,13.82
2017-02-27T12:02:29.793Z,13.72
2017-02-27T12:03:30.192Z,13.8
2017-02-27T12:04:29.768Z,13.81
2017-02-27T12:05:30.165Z,13.92
2017-02-27T12:06:29.734Z,14.08
2017-02-27T12:07:29.331Z,14.07
2017-02-27T12:08:29.699Z,13.99
2017-02-27T12:09:30.079Z,13.92
2017-02-27T12:10:30.068Z,13.9
2017-02-27T12:11:29.663Z,13.96
2017-02-27T12:12:30.017Z,13.77
2017-02-27T12:13:29.987Z,13.65
2017-02-27T12:14:29.596Z,13.67
2017-02-27T12:15:29.599Z,13.65
2017-02-27T12:16:29.265Z,13.74
2017-02-27T12:17:29.934Z,13.8
2017-02-27T12:18:29.175Z,13.89
2017-02-27T12:19:29.891Z,13.7
2017-02-27T12:20:29.476Z,13.65
2017-02-27T12:21:29.081Z,13.85
2017-02-27T12:22:29.431Z,13.8
2017-02-27T12:23:29.833Z,13.82
2017-02-27T12:24:29.790Z,13.7
2017-02-27T12:25:29.379Z,13.78
2017-02-27T12:26:28.998Z,13.75
2017-02-27T12:27:29.369Z,13.65
2017-02-27T12:28:29.725Z,13.7
2017-02-27T12:29:29.710Z,13.77
2017-02-27T12:30:29.703Z,13.71
2017-02-27T12:31:29.286Z,13.71
2017-02-27T12:32:29.634Z,13.75
2017-02-27T12:33:29.619Z,13.82
2017-02-27T12:34:29.611Z,13.9
2017-02-27T12:35:29.588Z,13.67
2017-02-27T12:36:29.565Z,13.7
2017-02-27T12:37:29.222Z,13.78
2017-02-27T12:38:29.162Z,13.85
2017-02-27T12:39:29.531Z,13.81
2017-02-27T12:40:29.501Z,13.8
2017-02-27T12:41:29.160Z,13.81
2017-02-27T12:42:29.459Z,13.72
2017-02-27T12:43:29.063Z,13.82
2017-02-27T12:44:29.440Z,13.92
2017-02-27T12:45:29.418Z,13.99
2017-02-27T12:46:29.400Z,13.85
2017-02-27T12:47:29.020Z,13.92
2017-02-27T12:48:28.979Z,13.93
2017-02-27T12:49:29.336Z,14.14
2017-02-27T12:50:29.337Z,14.17
2017-02-27T12:51:29.308Z,13.97
2017-02-27T12:52:28.906Z,14.02
2017-02-27T12:53:29.277Z,13.81
2017-02-27T12:54:29.244Z,13.93
2017-02-27T12:55:28.844Z,13.84
2017-02-27T12:56:28.823Z,14
2017-02-27T12:57:29.183Z,13.96
2017-02-27T12:58:28.853Z,13.97
2017-02-27T12:59:29.151Z,13.97
2017-02-27T13:00:29.160Z,13.81
2017-02-27T13:01:28.751Z,13.89
2017-02-27T13:02:28.709Z,13.93
2017-02-27T13:03:29.096Z,13.82
2017-02-27T13:04:28.685Z,13.75
2017-02-27T13:05:28.653Z,13.75
2017-02-27T13:06:28.251Z,13.82
2017-02-27T13:07:28.627Z,13.82
2017-02-27T13:08:28.587Z,13.82
2017-02-27T13:09:29.006Z,13.65
2017-02-27T13:10:28.952Z,13.85
2017-02-27T13:11:28.579Z,13.8